sensor_id;sensor_type;location;lat;lon;timestamp;P1;durP1;ratioP1;P2;durP2;ratioP2
6336;SDS011;3201;49.962;11.618;2022-09-29T00:00:38;0.70;;;0.60;;
6336;SDS011;3201;49.962;11.618;2022-09-29T00:03:04;0.70;;;0.60;;
6336;SDS011;3201;49.962;11.618;2022-09-29T00:05:30;0.57;;;0.50;;
6336;SDS011;3201;49.962;11.618;2022-09-29T00:07:55;0.50;;;0.30;;
6336;SDS011;3201;49.962;11.618;2022-09-29T00:10:21;0.90;;;0.60;;
6336;SDS011;3201;49.962;11.618;2022-09-29T00:12:47;0.60;;;0.50;;
6336;SDS011;3201;49.962;11.618;2022-09-29T00:15:13;0.83;;;0.60;;
6336;SDS011;3201;49.962;11.618;2022-09-29T00:17:39;0.70;;;0.70;;
6336;SDS011;3201;49.962;11.618;2022-09-29T00:20:04;1.00;;;0.50;;
6336;SDS011;3201;49.962;11.618;2022-09-29T00:22:30;0.80;;;0.63;;
6336;SDS011;3201;49.962;11.618;2022-09-29T00:24:56;0.80;;;0.60;;
6336;SDS011;3201;49.962;11.618;2022-09-29T00:27:21;0.90;;;0.50;;
6336;SDS011;3201;49.962;11.618;2022-09-29T00:29:46;0.83;;;0.53;;
6336;SDS011;3201;49.962;11.618;2022-09-29T00:32:12;1.20;;;0.70;;
6336;SDS011;3201;49.962;11.618;2022-09-29T00:34:38;0.77;;;0.57;;
6336;SDS011;3201;49.962;11.618;2022-09-29T00:37:03;0.70;;;0.50;;
6336;SDS011;3201;49.962;11.618;2022-09-29T00:39:29;0.80;;;0.50;;
6336;SDS011;3201;49.962;11.618;2022-09-29T00:41:55;3.40;;;0.70;;
6336;SDS011;3201;49.962;11.618;2022-09-29T00:47:08;1.37;;;0.70;;
6336;SDS011;3201;49.962;11.618;2022-09-29T00:49:55;0.97;;;0.70;;
6336;SDS011;3201;49.962;11.618;2022-09-29T00:52:32;1.40;;;0.63;;
6336;SDS011;3201;49.962;11.618;2022-09-29T00:55:01;0.70;;;0.50;;
6336;SDS011;3201;49.962;11.618;2022-09-29T00:57:36;1.67;;;0.67;;
6336;SDS011;3201;49.962;11.618;2022-09-29T01:00:07;0.70;;;0.60;;
6336;SDS011;3201;49.962;11.618;2022-09-29T01:02:35;1.00;;;0.57;;
6336;SDS011;3201;49.962;11.618;2022-09-29T01:05:04;0.90;;;0.47;;
6336;SDS011;3201;49.962;11.618;2022-09-29T01:07:32;1.33;;;0.60;;
6336;SDS011;3201;49.962;11.618;2022-09-29T01:09:58;0.80;;;0.80;;
6336;SDS011;3201;49.962;11.618;2022-09-29T01:12:23;0.67;;;0.53;;
6336;SDS011;3201;49.962;11.618;2022-09-29T01:14:49;0.90;;;0.70;;
6336;SDS011;3201;49.962;11.618;2022-09-29T01:17:17;2.53;;;0.73;;
6336;SDS011;3201;49.962;11.618;2022-09-29T01:30:18;0.50;;;0.47;;
6336;SDS011;3201;49.962;11.618;2022-09-29T01:33:05;1.07;;;0.90;;
6336;SDS011;3201;49.962;11.618;2022-09-29T01:41:22;0.67;;;0.43;;
6336;SDS011;3201;49.962;11.618;2022-09-29T01:43:38;1.23;;;0.70;;
6336;SDS011;3201;49.962;11.618;2022-09-29T01:46:10;1.30;;;0.50;;
6336;SDS011;3201;49.962;11.618;2022-09-29T01:48:39;0.93;;;0.80;;
6336;SDS011;3201;49.962;11.618;2022-09-29T01:51:10;1.23;;;0.63;;
6336;SDS011;3201;49.962;11.618;2022-09-29T01:53:40;1.03;;;0.70;;
6336;SDS011;3201;49.962;11.618;2022-09-29T01:56:12;0.70;;;0.57;;
6336;SDS011;3201;49.962;11.618;2022-09-29T01:58:46;0.67;;;0.63;;
6336;SDS011;3201;49.962;11.618;2022-09-29T02:01:16;0.70;;;0.67;;
6336;SDS011;3201;49.962;11.618;2022-09-29T02:03:46;0.83;;;0.60;;
6336;SDS011;3201;49.962;11.618;2022-09-29T02:06:16;0.80;;;0.70;;
6336;SDS011;3201;49.962;11.618;2022-09-29T02:08:47;1.00;;;0.50;;
6336;SDS011;3201;49.962;11.618;2022-09-29T02:11:15;1.10;;;0.50;;
6336;SDS011;3201;49.962;11.618;2022-09-29T02:16:10;0.70;;;0.60;;
6336;SDS011;3201;49.962;11.618;2022-09-29T02:18:41;0.70;;;0.60;;
6336;SDS011;3201;49.962;11.618;2022-09-29T02:21:10;0.77;;;0.60;;
6336;SDS011;3201;49.962;11.618;2022-09-29T02:23:35;1.07;;;0.60;;
6336;SDS011;3201;49.962;11.618;2022-09-29T02:26:01;1.83;;;0.70;;
6336;SDS011;3201;49.962;11.618;2022-09-29T02:28:26;0.63;;;0.60;;
6336;SDS011;3201;49.962;11.618;2022-09-29T02:30:52;1.13;;;0.57;;
6336;SDS011;3201;49.962;11.618;2022-09-29T02:33:18;0.70;;;0.60;;
6336;SDS011;3201;49.962;11.618;2022-09-29T02:35:50;1.27;;;0.60;;
6336;SDS011;3201;49.962;11.618;2022-09-29T02:38:24;0.77;;;0.50;;
6336;SDS011;3201;49.962;11.618;2022-09-29T02:42:04;0.93;;;0.67;;
6336;SDS011;3201;49.962;11.618;2022-09-29T02:43:53;1.37;;;0.90;;
6336;SDS011;3201;49.962;11.618;2022-09-29T02:46:56;0.80;;;0.70;;
6336;SDS011;3201;49.962;11.618;2022-09-29T02:52:41;1.50;;;0.80;;
6336;SDS011;3201;49.962;11.618;2022-09-29T03:00:35;1.23;;;0.70;;
6336;SDS011;3201;49.962;11.618;2022-09-29T03:03:01;2.00;;;0.70;;
6336;SDS011;3201;49.962;11.618;2022-09-29T03:05:27;0.93;;;0.70;;
6336;SDS011;3201;49.962;11.618;2022-09-29T03:07:52;0.80;;;0.63;;
6336;SDS011;3201;49.962;11.618;2022-09-29T03:10:17;2.20;;;0.80;;
6336;SDS011;3201;49.962;11.618;2022-09-29T03:12:43;0.60;;;0.60;;
6336;SDS011;3201;49.962;11.618;2022-09-29T03:15:10;1.20;;;0.60;;
6336;SDS011;3201;49.962;11.618;2022-09-29T03:17:36;1.00;;;0.67;;
6336;SDS011;3201;49.962;11.618;2022-09-29T03:20:03;0.97;;;0.67;;
6336;SDS011;3201;49.962;11.618;2022-09-29T03:22:29;0.63;;;0.63;;
6336;SDS011;3201;49.962;11.618;2022-09-29T03:24:54;0.80;;;0.60;;
6336;SDS011;3201;49.962;11.618;2022-09-29T03:27:20;0.83;;;0.60;;
6336;SDS011;3201;49.962;11.618;2022-09-29T03:29:45;1.73;;;0.80;;
6336;SDS011;3201;49.962;11.618;2022-09-29T03:32:10;0.83;;;0.63;;
6336;SDS011;3201;49.962;11.618;2022-09-29T03:34:36;0.70;;;0.57;;
6336;SDS011;3201;49.962;11.618;2022-09-29T03:37:01;0.87;;;0.60;;
6336;SDS011;3201;49.962;11.618;2022-09-29T03:39:28;0.90;;;0.70;;
6336;SDS011;3201;49.962;11.618;2022-09-29T03:41:53;1.93;;;0.83;;
6336;SDS011;3201;49.962;11.618;2022-09-29T03:44:19;0.70;;;0.50;;
6336;SDS011;3201;49.962;11.618;2022-09-29T03:46:44;1.63;;;0.70;;
6336;SDS011;3201;49.962;11.618;2022-09-29T03:49:11;0.60;;;0.57;;
6336;SDS011;3201;49.962;11.618;2022-09-29T03:51:37;0.80;;;0.70;;
6336;SDS011;3201;49.962;11.618;2022-09-29T03:54:03;1.20;;;0.90;;
6336;SDS011;3201;49.962;11.618;2022-09-29T03:56:28;2.30;;;1.00;;
6336;SDS011;3201;49.962;11.618;2022-09-29T03:58:54;1.00;;;0.70;;
6336;SDS011;3201;49.962;11.618;2022-09-29T04:01:19;1.00;;;0.70;;
6336;SDS011;3201;49.962;11.618;2022-09-29T04:03:45;1.37;;;1.07;;
6336;SDS011;3201;49.962;11.618;2022-09-29T04:06:11;2.53;;;0.60;;
6336;SDS011;3201;49.962;11.618;2022-09-29T04:08:36;1.33;;;0.60;;
6336;SDS011;3201;49.962;11.618;2022-09-29T04:11:03;0.70;;;0.60;;
6336;SDS011;3201;49.962;11.618;2022-09-29T04:13:29;0.70;;;0.70;;
6336;SDS011;3201;49.962;11.618;2022-09-29T04:15:58;0.80;;;0.70;;
6336;SDS011;3201;49.962;11.618;2022-09-29T04:18:25;0.97;;;0.70;;
6336;SDS011;3201;49.962;11.618;2022-09-29T04:20:51;0.73;;;0.60;;
6336;SDS011;3201;49.962;11.618;2022-09-29T04:23:16;0.90;;;0.57;;
6336;SDS011;3201;49.962;11.618;2022-09-29T04:25:43;1.80;;;0.80;;
6336;SDS011;3201;49.962;11.618;2022-09-29T04:28:09;2.33;;;0.80;;
6336;SDS011;3201;49.962;11.618;2022-09-29T04:30:35;1.00;;;0.80;;
6336;SDS011;3201;49.962;11.618;2022-09-29T04:33:01;0.70;;;0.40;;
6336;SDS011;3201;49.962;11.618;2022-09-29T04:35:26;0.80;;;0.60;;
6336;SDS011;3201;49.962;11.618;2022-09-29T04:37:55;2.33;;;0.63;;
6336;SDS011;3201;49.962;11.618;2022-09-29T04:40:21;0.63;;;0.50;;
6336;SDS011;3201;49.962;11.618;2022-09-29T04:42:47;0.70;;;0.60;;
6336;SDS011;3201;49.962;11.618;2022-09-29T04:45:13;0.80;;;0.70;;
6336;SDS011;3201;49.962;11.618;2022-09-29T04:47:38;0.80;;;0.70;;
6336;SDS011;3201;49.962;11.618;2022-09-29T04:50:05;0.97;;;0.57;;
6336;SDS011;3201;49.962;11.618;2022-09-29T04:52:31;1.00;;;0.80;;
6336;SDS011;3201;49.962;11.618;2022-09-29T04:54:57;1.00;;;0.90;;
6336;SDS011;3201;49.962;11.618;2022-09-29T04:57:22;0.60;;;0.50;;
6336;SDS011;3201;49.962;11.618;2022-09-29T04:59:48;1.30;;;0.60;;
6336;SDS011;3201;49.962;11.618;2022-09-29T05:02:16;0.90;;;0.60;;
6336;SDS011;3201;49.962;11.618;2022-09-29T05:04:43;0.97;;;0.80;;
6336;SDS011;3201;49.962;11.618;2022-09-29T05:07:09;0.70;;;0.70;;
6336;SDS011;3201;49.962;11.618;2022-09-29T05:09:34;0.80;;;0.70;;
6336;SDS011;3201;49.962;11.618;2022-09-29T05:12:00;0.90;;;0.60;;
6336;SDS011;3201;49.962;11.618;2022-09-29T05:14:25;1.07;;;0.90;;
6336;SDS011;3201;49.962;11.618;2022-09-29T05:16:52;0.60;;;0.60;;
6336;SDS011;3201;49.962;11.618;2022-09-29T05:19:18;1.60;;;0.80;;
6336;SDS011;3201;49.962;11.618;2022-09-29T05:21:44;0.80;;;0.60;;
6336;SDS011;3201;49.962;11.618;2022-09-29T05:24:10;0.83;;;0.70;;
6336;SDS011;3201;49.962;11.618;2022-09-29T05:26:36;0.60;;;0.40;;
6336;SDS011;3201;49.962;11.618;2022-09-29T05:29:01;0.60;;;0.50;;
6336;SDS011;3201;49.962;11.618;2022-09-29T05:31:27;0.83;;;0.70;;
6336;SDS011;3201;49.962;11.618;2022-09-29T05:33:53;1.00;;;0.70;;
6336;SDS011;3201;49.962;11.618;2022-09-29T05:36:20;1.27;;;0.67;;
6336;SDS011;3201;49.962;11.618;2022-09-29T05:38:45;1.00;;;0.60;;
6336;SDS011;3201;49.962;11.618;2022-09-29T05:41:11;0.90;;;0.60;;
6336;SDS011;3201;49.962;11.618;2022-09-29T05:43:38;0.80;;;0.80;;
6336;SDS011;3201;49.962;11.618;2022-09-29T05:46:04;1.83;;;0.80;;
6336;SDS011;3201;49.962;11.618;2022-09-29T05:48:31;0.67;;;0.50;;
6336;SDS011;3201;49.962;11.618;2022-09-29T05:50:58;0.77;;;0.60;;
6336;SDS011;3201;49.962;11.618;2022-09-29T05:53:25;0.87;;;0.67;;
6336;SDS011;3201;49.962;11.618;2022-09-29T05:55:50;0.63;;;0.60;;
6336;SDS011;3201;49.962;11.618;2022-09-29T05:58:16;0.60;;;0.57;;
6336;SDS011;3201;49.962;11.618;2022-09-29T06:00:42;1.00;;;0.70;;
6336;SDS011;3201;49.962;11.618;2022-09-29T06:03:08;0.70;;;0.63;;
6336;SDS011;3201;49.962;11.618;2022-09-29T06:05:36;0.80;;;0.60;;
6336;SDS011;3201;49.962;11.618;2022-09-29T06:08:02;0.87;;;0.67;;
6336;SDS011;3201;49.962;11.618;2022-09-29T06:10:27;0.73;;;0.60;;
6336;SDS011;3201;49.962;11.618;2022-09-29T06:12:53;0.87;;;0.73;;
6336;SDS011;3201;49.962;11.618;2022-09-29T06:15:18;0.70;;;0.43;;
6336;SDS011;3201;49.962;11.618;2022-09-29T06:17:44;1.17;;;0.80;;
6336;SDS011;3201;49.962;11.618;2022-09-29T06:20:09;1.30;;;1.10;;
6336;SDS011;3201;49.962;11.618;2022-09-29T06:22:35;1.00;;;0.77;;
6336;SDS011;3201;49.962;11.618;2022-09-29T06:25:01;0.70;;;0.60;;
6336;SDS011;3201;49.962;11.618;2022-09-29T06:27:26;0.73;;;0.67;;
6336;SDS011;3201;49.962;11.618;2022-09-29T06:29:52;0.90;;;0.70;;
6336;SDS011;3201;49.962;11.618;2022-09-29T06:32:17;0.90;;;0.70;;
6336;SDS011;3201;49.962;11.618;2022-09-29T06:34:43;1.00;;;0.73;;
6336;SDS011;3201;49.962;11.618;2022-09-29T06:37:28;0.83;;;0.70;;
6336;SDS011;3201;49.962;11.618;2022-09-29T06:40:02;0.90;;;0.77;;
6336;SDS011;3201;49.962;11.618;2022-09-29T06:42:29;0.90;;;0.60;;
6336;SDS011;3201;49.962;11.618;2022-09-29T06:44:55;0.73;;;0.60;;
6336;SDS011;3201;49.962;11.618;2022-09-29T06:47:20;1.30;;;1.10;;
6336;SDS011;3201;49.962;11.618;2022-09-29T06:49:47;1.00;;;0.90;;
6336;SDS011;3201;49.962;11.618;2022-09-29T06:52:12;0.83;;;0.50;;
6336;SDS011;3201;49.962;11.618;2022-09-29T06:54:38;0.80;;;0.63;;
6336;SDS011;3201;49.962;11.618;2022-09-29T06:57:03;1.10;;;0.70;;
6336;SDS011;3201;49.962;11.618;2022-09-29T06:59:29;0.93;;;0.60;;
6336;SDS011;3201;49.962;11.618;2022-09-29T07:01:54;0.90;;;0.60;;
6336;SDS011;3201;49.962;11.618;2022-09-29T07:04:20;0.67;;;0.60;;
6336;SDS011;3201;49.962;11.618;2022-09-29T07:06:45;0.80;;;0.63;;
6336;SDS011;3201;49.962;11.618;2022-09-29T07:09:11;1.33;;;0.90;;
6336;SDS011;3201;49.962;11.618;2022-09-29T07:11:40;0.60;;;0.60;;
6336;SDS011;3201;49.962;11.618;2022-09-29T07:14:18;1.70;;;0.80;;
6336;SDS011;3201;49.962;11.618;2022-09-29T07:16:46;1.00;;;0.70;;
6336;SDS011;3201;49.962;11.618;2022-09-29T07:19:12;0.90;;;0.70;;
6336;SDS011;3201;49.962;11.618;2022-09-29T07:21:38;1.60;;;0.80;;
6336;SDS011;3201;49.962;11.618;2022-09-29T07:24:04;0.80;;;0.80;;
6336;SDS011;3201;49.962;11.618;2022-09-29T07:26:29;0.80;;;0.60;;
6336;SDS011;3201;49.962;11.618;2022-09-29T07:28:55;0.70;;;0.63;;
6336;SDS011;3201;49.962;11.618;2022-09-29T07:31:20;1.10;;;0.80;;
6336;SDS011;3201;49.962;11.618;2022-09-29T07:33:47;1.87;;;0.90;;
6336;SDS011;3201;49.962;11.618;2022-09-29T07:36:14;0.73;;;0.63;;
6336;SDS011;3201;49.962;11.618;2022-09-29T07:38:41;1.07;;;0.90;;
6336;SDS011;3201;49.962;11.618;2022-09-29T07:41:09;0.67;;;0.60;;
6336;SDS011;3201;49.962;11.618;2022-09-29T07:43:35;0.83;;;0.60;;
6336;SDS011;3201;49.962;11.618;2022-09-29T07:46:02;1.07;;;0.73;;
6336;SDS011;3201;49.962;11.618;2022-09-29T07:48:28;0.90;;;0.80;;
6336;SDS011;3201;49.962;11.618;2022-09-29T07:51:11;0.67;;;0.60;;
6336;SDS011;3201;49.962;11.618;2022-09-29T07:53:38;0.83;;;0.70;;
6336;SDS011;3201;49.962;11.618;2022-09-29T07:56:04;0.50;;;0.50;;
6336;SDS011;3201;49.962;11.618;2022-09-29T07:58:32;0.80;;;0.70;;
6336;SDS011;3201;49.962;11.618;2022-09-29T08:00:58;1.00;;;0.83;;
6336;SDS011;3201;49.962;11.618;2022-09-29T08:03:25;0.90;;;0.80;;
6336;SDS011;3201;49.962;11.618;2022-09-29T08:05:51;0.80;;;0.70;;
6336;SDS011;3201;49.962;11.618;2022-09-29T08:08:18;1.00;;;0.80;;
6336;SDS011;3201;49.962;11.618;2022-09-29T08:10:44;1.00;;;0.90;;
6336;SDS011;3201;49.962;11.618;2022-09-29T08:13:09;5.63;;;0.80;;
6336;SDS011;3201;49.962;11.618;2022-09-29T08:15:35;0.80;;;0.50;;
6336;SDS011;3201;49.962;11.618;2022-09-29T08:18:00;1.00;;;0.70;;
6336;SDS011;3201;49.962;11.618;2022-09-29T08:20:25;1.20;;;0.80;;
6336;SDS011;3201;49.962;11.618;2022-09-29T08:22:51;0.60;;;0.50;;
6336;SDS011;3201;49.962;11.618;2022-09-29T08:25:17;0.73;;;0.50;;
6336;SDS011;3201;49.962;11.618;2022-09-29T08:27:43;1.90;;;0.90;;
6336;SDS011;3201;49.962;11.618;2022-09-29T08:30:09;0.70;;;0.50;;
6336;SDS011;3201;49.962;11.618;2022-09-29T08:32:36;1.27;;;0.77;;
6336;SDS011;3201;49.962;11.618;2022-09-29T08:35:02;0.97;;;0.67;;
6336;SDS011;3201;49.962;11.618;2022-09-29T08:37:28;3.00;;;0.70;;
6336;SDS011;3201;49.962;11.618;2022-09-29T08:39:55;2.60;;;0.87;;
6336;SDS011;3201;49.962;11.618;2022-09-29T08:43:25;3.13;;;0.70;;
6336;SDS011;3201;49.962;11.618;2022-09-29T08:45:27;1.53;;;0.70;;
6336;SDS011;3201;49.962;11.618;2022-09-29T08:47:58;0.70;;;0.60;;
6336;SDS011;3201;49.962;11.618;2022-09-29T08:50:30;1.37;;;0.70;;
6336;SDS011;3201;49.962;11.618;2022-09-29T08:53:00;1.20;;;0.80;;
6336;SDS011;3201;49.962;11.618;2022-09-29T08:55:40;2.10;;;0.77;;
6336;SDS011;3201;49.962;11.618;2022-09-29T08:58:17;5.47;;;0.80;;
6336;SDS011;3201;49.962;11.618;2022-09-29T09:00:52;2.23;;;0.87;;
6336;SDS011;3201;49.962;11.618;2022-09-29T09:03:45;0.70;;;0.60;;
6336;SDS011;3201;49.962;11.618;2022-09-29T09:09:23;0.80;;;0.80;;
6336;SDS011;3201;49.962;11.618;2022-09-29T09:17:34;0.73;;;0.73;;
6336;SDS011;3201;49.962;11.618;2022-09-29T09:20:21;1.60;;;0.80;;
6336;SDS011;3201;49.962;11.618;2022-09-29T09:25:33;0.87;;;0.77;;
6336;SDS011;3201;49.962;11.618;2022-09-29T09:30:39;2.73;;;0.70;;
6336;SDS011;3201;49.962;11.618;2022-09-29T09:33:15;1.83;;;0.60;;
6336;SDS011;3201;49.962;11.618;2022-09-29T09:36:05;2.13;;;0.97;;
6336;SDS011;3201;49.962;11.618;2022-09-29T09:41:15;0.97;;;0.70;;
6336;SDS011;3201;49.962;11.618;2022-09-29T09:43:45;2.10;;;0.67;;
6336;SDS011;3201;49.962;11.618;2022-09-29T09:46:17;1.27;;;0.70;;
6336;SDS011;3201;49.962;11.618;2022-09-29T09:48:50;1.40;;;0.63;;
6336;SDS011;3201;49.962;11.618;2022-09-29T09:51:40;3.40;;;0.80;;
6336;SDS011;3201;49.962;11.618;2022-09-29T09:54:10;2.10;;;0.87;;
6336;SDS011;3201;49.962;11.618;2022-09-29T09:56:46;4.60;;;0.73;;
6336;SDS011;3201;49.962;11.618;2022-09-29T09:59:21;2.97;;;1.00;;
6336;SDS011;3201;49.962;11.618;2022-09-29T10:01:55;1.90;;;0.80;;
6336;SDS011;3201;49.962;11.618;2022-09-29T10:04:21;1.90;;;1.00;;
6336;SDS011;3201;49.962;11.618;2022-09-29T10:06:48;1.67;;;0.60;;
6336;SDS011;3201;49.962;11.618;2022-09-29T10:09:14;0.80;;;0.60;;
6336;SDS011;3201;49.962;11.618;2022-09-29T10:11:40;0.97;;;0.90;;
6336;SDS011;3201;49.962;11.618;2022-09-29T10:14:38;1.00;;;0.73;;
6336;SDS011;3201;49.962;11.618;2022-09-29T10:16:56;3.70;;;0.90;;
6336;SDS011;3201;49.962;11.618;2022-09-29T10:20:31;1.40;;;0.73;;
6336;SDS011;3201;49.962;11.618;2022-09-29T10:22:19;4.10;;;0.93;;
6336;SDS011;3201;49.962;11.618;2022-09-29T10:24:45;4.83;;;0.90;;
6336;SDS011;3201;49.962;11.618;2022-09-29T10:27:10;2.43;;;0.83;;
6336;SDS011;3201;49.962;11.618;2022-09-29T10:29:42;6.77;;;1.07;;
6336;SDS011;3201;49.962;11.618;2022-09-29T10:34:43;1.73;;;0.73;;
6336;SDS011;3201;49.962;11.618;2022-09-29T10:39:44;1.83;;;0.90;;
6336;SDS011;3201;49.962;11.618;2022-09-29T10:42:21;1.20;;;0.73;;
6336;SDS011;3201;49.962;11.618;2022-09-29T10:44:52;7.80;;;1.07;;
6336;SDS011;3201;49.962;11.618;2022-09-29T10:47:19;3.20;;;0.87;;
6336;SDS011;3201;49.962;11.618;2022-09-29T10:49:46;5.80;;;0.60;;
6336;SDS011;3201;49.962;11.618;2022-09-29T10:52:16;1.80;;;0.97;;
6336;SDS011;3201;49.962;11.618;2022-09-29T10:55:02;4.37;;;0.90;;
6336;SDS011;3201;49.962;11.618;2022-09-29T10:57:29;2.80;;;1.03;;
6336;SDS011;3201;49.962;11.618;2022-09-29T10:59:57;8.53;;;0.90;;
6336;SDS011;3201;49.962;11.618;2022-09-29T11:04:53;5.00;;;0.87;;
6336;SDS011;3201;49.962;11.618;2022-09-29T11:07:20;2.73;;;0.80;;
6336;SDS011;3201;49.962;11.618;2022-09-29T11:09:46;1.83;;;1.13;;
6336;SDS011;3201;49.962;11.618;2022-09-29T11:12:28;5.37;;;1.10;;
6336;SDS011;3201;49.962;11.618;2022-09-29T11:14:56;13.43;;;1.10;;
6336;SDS011;3201;49.962;11.618;2022-09-29T11:17:24;0.90;;;0.70;;
6336;SDS011;3201;49.962;11.618;2022-09-29T11:20:09;1.37;;;1.00;;
6336;SDS011;3201;49.962;11.618;2022-09-29T11:22:55;4.93;;;0.97;;
6336;SDS011;3201;49.962;11.618;2022-09-29T11:25:31;1.43;;;0.70;;
6336;SDS011;3201;49.962;11.618;2022-09-29T11:28:55;3.30;;;1.17;;
6336;SDS011;3201;49.962;11.618;2022-09-29T11:36:50;3.43;;;1.20;;
6336;SDS011;3201;49.962;11.618;2022-09-29T11:52:17;4.67;;;1.40;;
6336;SDS011;3201;49.962;11.618;2022-09-29T11:55:42;1.93;;;0.97;;
6336;SDS011;3201;49.962;11.618;2022-09-29T11:58:17;1.00;;;0.80;;
6336;SDS011;3201;49.962;11.618;2022-09-29T12:06:50;35.60;;;4.70;;
6336;SDS011;3201;49.962;11.618;2022-09-29T12:09:26;17.33;;;3.47;;
6336;SDS011;3201;49.962;11.618;2022-09-29T12:17:12;15.53;;;3.10;;
6336;SDS011;3201;49.962;11.618;2022-09-29T12:19:40;12.90;;;2.73;;
6336;SDS011;3201;49.962;11.618;2022-09-29T12:22:07;12.50;;;2.30;;
6336;SDS011;3201;49.962;11.618;2022-09-29T12:27:13;18.20;;;2.10;;
6336;SDS011;3201;49.962;11.618;2022-09-29T12:29:43;15.27;;;2.00;;
6336;SDS011;3201;49.962;11.618;2022-09-29T12:32:14;14.13;;;2.30;;
6336;SDS011;3201;49.962;11.618;2022-09-29T12:34:46;11.90;;;1.87;;
6336;SDS011;3201;49.962;11.618;2022-09-29T12:40:09;9.57;;;2.17;;
6336;SDS011;3201;49.962;11.618;2022-09-29T12:56:57;5.80;;;1.57;;
6336;SDS011;3201;49.962;11.618;2022-09-29T13:00:00;4.93;;;1.30;;
6336;SDS011;3201;49.962;11.618;2022-09-29T13:02:44;10.50;;;1.70;;
6336;SDS011;3201;49.962;11.618;2022-09-29T13:06:12;11.43;;;1.80;;
6336;SDS011;3201;49.962;11.618;2022-09-29T13:11:13;4.30;;;1.37;;
6336;SDS011;3201;49.962;11.618;2022-09-29T13:16:35;11.73;;;1.90;;
6336;SDS011;3201;49.962;11.618;2022-09-29T13:24:28;4.03;;;1.80;;
6336;SDS011;3201;49.962;11.618;2022-09-29T13:29:54;11.37;;;2.27;;
6336;SDS011;3201;49.962;11.618;2022-09-29T13:32:23;5.20;;;1.33;;
6336;SDS011;3201;49.962;11.618;2022-09-29T13:34:54;6.93;;;1.57;;
6336;SDS011;3201;49.962;11.618;2022-09-29T13:37:22;8.67;;;1.90;;
6336;SDS011;3201;49.962;11.618;2022-09-29T13:39:54;10.40;;;1.50;;
6336;SDS011;3201;49.962;11.618;2022-09-29T13:42:38;11.37;;;1.77;;
6336;SDS011;3201;49.962;11.618;2022-09-29T13:47:50;6.60;;;2.20;;
6336;SDS011;3201;49.962;11.618;2022-09-29T13:50:49;6.47;;;1.30;;
6336;SDS011;3201;49.962;11.618;2022-09-29T14:00:48;3.87;;;1.53;;
6336;SDS011;3201;49.962;11.618;2022-09-29T14:03:20;12.27;;;2.43;;
6336;SDS011;3201;49.962;11.618;2022-09-29T14:09:40;7.50;;;2.30;;
6336;SDS011;3201;49.962;11.618;2022-09-29T14:11:30;5.50;;;2.60;;
6336;SDS011;3201;49.962;11.618;2022-09-29T14:14:00;13.60;;;2.67;;
6336;SDS011;3201;49.962;11.618;2022-09-29T14:16:33;11.43;;;2.57;;
6336;SDS011;3201;49.962;11.618;2022-09-29T14:19:05;5.83;;;2.03;;
6336;SDS011;3201;49.962;11.618;2022-09-29T14:22:48;7.00;;;1.90;;
6336;SDS011;3201;49.962;11.618;2022-09-29T14:27:37;6.73;;;2.00;;
6336;SDS011;3201;49.962;11.618;2022-09-29T14:29:57;5.10;;;1.80;;
6336;SDS011;3201;49.962;11.618;2022-09-29T14:32:31;13.93;;;2.10;;
6336;SDS011;3201;49.962;11.618;2022-09-29T14:35:05;5.27;;;1.90;;
6336;SDS011;3201;49.962;11.618;2022-09-29T14:37:39;4.70;;;1.73;;
6336;SDS011;3201;49.962;11.618;2022-09-29T14:40:05;14.13;;;2.00;;
6336;SDS011;3201;49.962;11.618;2022-09-29T14:43:24;4.67;;;1.73;;
6336;SDS011;3201;49.962;11.618;2022-09-29T14:45:44;4.83;;;1.80;;
6336;SDS011;3201;49.962;11.618;2022-09-29T14:48:45;7.13;;;1.80;;
6336;SDS011;3201;49.962;11.618;2022-09-29T14:51:34;5.73;;;1.40;;
6336;SDS011;3201;49.962;11.618;2022-09-29T14:54:28;9.20;;;1.80;;
6336;SDS011;3201;49.962;11.618;2022-09-29T14:57:13;5.30;;;1.80;;
6336;SDS011;3201;49.962;11.618;2022-09-29T15:00:17;4.20;;;2.43;;
6336;SDS011;3201;49.962;11.618;2022-09-29T15:02:45;5.13;;;1.80;;
6336;SDS011;3201;49.962;11.618;2022-09-29T15:05:20;3.63;;;1.40;;
6336;SDS011;3201;49.962;11.618;2022-09-29T15:07:51;9.13;;;1.83;;
6336;SDS011;3201;49.962;11.618;2022-09-29T15:10:20;5.33;;;1.60;;
6336;SDS011;3201;49.962;11.618;2022-09-29T15:12:47;4.40;;;1.50;;
6336;SDS011;3201;49.962;11.618;2022-09-29T15:15:31;4.97;;;1.57;;
6336;SDS011;3201;49.962;11.618;2022-09-29T15:18:05;12.47;;;2.40;;
6336;SDS011;3201;49.962;11.618;2022-09-29T15:20:46;4.50;;;1.60;;
6336;SDS011;3201;49.962;11.618;2022-09-29T15:25:58;4.17;;;1.47;;
6336;SDS011;3201;49.962;11.618;2022-09-29T15:28:27;5.90;;;1.70;;
6336;SDS011;3201;49.962;11.618;2022-09-29T15:30:58;6.07;;;1.90;;
6336;SDS011;3201;49.962;11.618;2022-09-29T15:33:30;9.50;;;1.93;;
6336;SDS011;3201;49.962;11.618;2022-09-29T15:36:04;7.10;;;1.63;;
6336;SDS011;3201;49.962;11.618;2022-09-29T15:41:02;5.07;;;1.73;;
6336;SDS011;3201;49.962;11.618;2022-09-29T15:43:37;3.50;;;1.43;;
6336;SDS011;3201;49.962;11.618;2022-09-29T15:46:12;2.90;;;1.20;;
6336;SDS011;3201;49.962;11.618;2022-09-29T15:48:41;4.43;;;1.80;;
6336;SDS011;3201;49.962;11.618;2022-09-29T15:51:15;3.00;;;1.33;;
6336;SDS011;3201;49.962;11.618;2022-09-29T15:53:41;9.13;;;1.47;;
6336;SDS011;3201;49.962;11.618;2022-09-29T15:56:09;6.00;;;1.53;;
6336;SDS011;3201;49.962;11.618;2022-09-29T15:58:35;6.47;;;1.33;;
6336;SDS011;3201;49.962;11.618;2022-09-29T16:01:07;5.53;;;1.20;;
6336;SDS011;3201;49.962;11.618;2022-09-29T16:06:18;5.87;;;1.80;;
6336;SDS011;3201;49.962;11.618;2022-09-29T16:08:54;6.57;;;1.80;;
6336;SDS011;3201;49.962;11.618;2022-09-29T16:11:24;3.60;;;1.50;;
6336;SDS011;3201;49.962;11.618;2022-09-29T16:13:53;6.47;;;1.43;;
6336;SDS011;3201;49.962;11.618;2022-09-29T16:16:24;5.63;;;1.77;;
6336;SDS011;3201;49.962;11.618;2022-09-29T16:18:51;6.47;;;1.73;;
6336;SDS011;3201;49.962;11.618;2022-09-29T16:21:19;3.87;;;1.40;;
6336;SDS011;3201;49.962;11.618;2022-09-29T16:23:48;3.13;;;1.27;;
6336;SDS011;3201;49.962;11.618;2022-09-29T16:26:35;2.63;;;1.37;;
6336;SDS011;3201;49.962;11.618;2022-09-29T16:31:39;3.40;;;1.20;;
6336;SDS011;3201;49.962;11.618;2022-09-29T16:34:20;3.53;;;1.40;;
6336;SDS011;3201;49.962;11.618;2022-09-29T16:36:48;2.53;;;1.67;;
6336;SDS011;3201;49.962;11.618;2022-09-29T16:39:16;5.67;;;1.83;;
6336;SDS011;3201;49.962;11.618;2022-09-29T16:41:42;4.40;;;1.10;;
6336;SDS011;3201;49.962;11.618;2022-09-29T16:44:16;3.20;;;1.70;;
6336;SDS011;3201;49.962;11.618;2022-09-29T16:49:24;1.83;;;1.50;;
6336;SDS011;3201;49.962;11.618;2022-09-29T16:51:51;2.70;;;1.47;;
6336;SDS011;3201;49.962;11.618;2022-09-29T16:54:20;3.33;;;1.47;;
6336;SDS011;3201;49.962;11.618;2022-09-29T16:56:48;2.30;;;1.60;;
6336;SDS011;3201;49.962;11.618;2022-09-29T16:59:17;1.87;;;1.37;;
6336;SDS011;3201;49.962;11.618;2022-09-29T17:01:43;2.80;;;1.70;;
6336;SDS011;3201;49.962;11.618;2022-09-29T17:04:10;3.27;;;1.33;;
6336;SDS011;3201;49.962;11.618;2022-09-29T17:06:36;2.53;;;1.10;;
6336;SDS011;3201;49.962;11.618;2022-09-29T17:09:03;5.33;;;1.80;;
6336;SDS011;3201;49.962;11.618;2022-09-29T17:11:29;2.17;;;1.00;;
6336;SDS011;3201;49.962;11.618;2022-09-29T17:13:54;2.17;;;1.37;;
6336;SDS011;3201;49.962;11.618;2022-09-29T17:16:22;3.33;;;1.30;;
6336;SDS011;3201;49.962;11.618;2022-09-29T17:18:49;4.30;;;1.37;;
6336;SDS011;3201;49.962;11.618;2022-09-29T17:21:16;7.80;;;1.27;;
6336;SDS011;3201;49.962;11.618;2022-09-29T17:23:42;2.80;;;1.37;;
6336;SDS011;3201;49.962;11.618;2022-09-29T17:26:12;6.80;;;1.77;;
6336;SDS011;3201;49.962;11.618;2022-09-29T17:29:03;7.27;;;1.90;;
6336;SDS011;3201;49.962;11.618;2022-09-29T17:31:29;4.70;;;1.20;;
6336;SDS011;3201;49.962;11.618;2022-09-29T17:33:54;5.17;;;0.87;;
6336;SDS011;3201;49.962;11.618;2022-09-29T17:36:20;3.43;;;1.60;;
6336;SDS011;3201;49.962;11.618;2022-09-29T17:38:48;3.07;;;1.40;;
6336;SDS011;3201;49.962;11.618;2022-09-29T17:41:15;1.80;;;1.23;;
6336;SDS011;3201;49.962;11.618;2022-09-29T17:43:42;2.87;;;1.30;;
6336;SDS011;3201;49.962;11.618;2022-09-29T17:46:10;2.10;;;1.13;;